Terminal Aerodrome Forecast
Issued by NWS Wakefield, VA

Home | Current Version | Previous Version | Text Only | Print | Product List | Glossary On
Versions: 1 2 3 4 5 6 7 8 9 10 11 12 13 14 15 16 17 18 19
000
FTUS41 KAKQ 280800 AAA
TAFSBY
TAF AMD
KSBY 280840Z 2809/2906 34012G20KT P6SM SKC
     FM281400 32015G22KT P6SM SKC
     FM282200 33007KT P6SM SKC=

USA.gov is the U.S. government's official web portal to all federal, state and local government web resources and services.